Terminal Aerodrome Forecast
Issued by NWS

Home | Current Version | Previous Version | Text Only | Print | Product List | Glossary On
Versions: 1 2 3 4 5 6 7 8 9 10 11 12 13 14 15 16 17 18 19 20 21 22 23 24 25 26 27
000
FTUS41 KCAR 021100
TAFBHB
TAF
KBHB 021139Z 0212/0312 VRB03KT 1/4SM FG OVC002
     FM021300 VRB03KT 3/4SM BR OVC004
     FM021400 16006KT 3SM BR OVC008
     FM021600 18010KT P6SM BKN020
     FM021800 18010KT P6SM BKN040
     FM030000 18008KT P6SM OVC008
     FM030200 18010KT 4SM BR VCSH OVC004
     FM030400 20010KT 3/4SM -SHRA BR OVC002
     FM031000 24008KT 3SM -SHRA BR OVC005
      AMD LTD TO CLD VIS AND WIND=

USA.gov is the U.S. government's official web portal to all federal, state and local government web resources and services.